New Champion — V7GG2 — position and weather

sailwx.info

Track history (hours):
 
Tides and Currents Weather Stations Pressure Air Temp Water Temp Dewpoint Dewpoint Depression Visibility Wind Speed Wind Dir Waves Ship Positions

New Champion

Last reported at 2017-May-23 08:08 UTC. Time now 2017-May-24 02:21 UTC.
Position N 26°13' W 079°18'.

Length 228 m; draft 11.4 m.

Type: Ship (hazmat cat A). MMSI: 537985031.

Date/timePositionNaut miles runAvg speedWind from/ knotsBaromVisibWave heightAir tempDewpointWater temp
2017-May-23 08:08N 26°13' W 079°18'412.7
2017-May-23 07:48N 26°12' W 079°23'412.7
2017-May-23 07:30N 26°10' W 079°27'1412.8
2017-May-23 06:25N 25°57' W 079°31'615.1
2017-May-23 06:00N 25°50' W 079°31'715.0
2017-May-23 05:30N 25°43' W 079°31'714.4
2017-May-23 05:00N 25°36' W 079°31'814.3
2017-May-23 04:29N 25°28' W 079°31'  
2017-May-17 04:04N 28°53' W 089°26'  
Track history (hours):
 
Tides and Currents Weather Stations Pressure Air Temp Water Temp Dewpoint Dewpoint Depression Visibility Wind Speed Wind Dir Waves Ship Positions

New Champion

Last reported at 2017-May-23 08:08 UTC. Time now 2017-May-24 02:21 UTC.
Position N 26°13' W 079°18'.

Length 228 m; draft 11.4 m.

Type: Ship (hazmat cat A). MMSI: 537985031.

Date/timePositionNaut miles runAvg speedWind from/ knotsBaromVisibWave heightAir tempDewpointWater temp
2017-May-23 08:08N 26°13' W 079°18'412.7
2017-May-23 07:48N 26°12' W 079°23'412.7
2017-May-23 07:30N 26°10' W 079°27'1412.8
2017-May-23 06:25N 25°57' W 079°31'615.1
2017-May-23 06:00N 25°50' W 079°31'715.0
2017-May-23 05:30N 25°43' W 079°31'714.4
2017-May-23 05:00N 25°36' W 079°31'814.3
2017-May-23 04:29N 25°28' W 079°31'  
2017-May-17 04:04N 28°53' W 089°26'  

Dump ship's entire track history